Time;durP1;ratioP1;P1;durP2;ratioP2;P2;SDS_P1;SDS_P2;PMS_P1;PMS_P2;Temp;Humidity;BMP_temperature;BMP_pressure;BME280_temperature;BME280_humidity;BME280_pressure;Samples;Min_cycle;Max_cycle;Signal;HPM_P1;HPM_P2
2023/12/09 00:00:28;;;;;;;1999.90;999.90;;;8.30;41.60;;;;;;4995219;28;20266;-70
2023/12/09 00:02:54;;;;;;;1999.90;999.90;;;8.30;72.70;;;;;;4995046;28;20191;-70
2023/12/09 00:05:19;;;;;;;1999.90;999.90;;;8.20;33.10;;;;;;4995088;28;20228;-69
2023/12/09 00:07:45;;;;;;;1999.90;999.90;;;8.20;99.90;;;;;;4994829;28;20268;-70
2023/12/09 00:10:10;;;;;;;1999.90;999.90;;;8.40;91.30;;;;;;4993863;28;20670;-70
2023/12/09 00:12:36;;;;;;;1999.90;999.90;;;8.40;31.60;;;;;;4994960;28;20272;-70
2023/12/09 00:15:02;;;;;;;1999.90;999.90;;;8.20;9.10;;;;;;4994870;28;20182;-71
2023/12/09 00:17:29;;;;;;;1999.90;999.90;;;8.20;21.60;;;;;;4994690;28;20262;-70
2023/12/09 00:19:55;;;;;;;1999.90;999.90;;;8.20;1.00;;;;;;4994839;28;21199;-70
2023/12/09 00:22:20;;;;;;;1999.90;999.90;;;8.30;1.00;;;;;;4994831;28;20189;-70
2023/12/09 00:24:46;;;;;;;1999.90;999.90;;;8.20;4.20;;;;;;4994598;28;20206;-70
2023/12/09 00:27:12;;;;;;;1999.90;999.90;;;8.20;12.40;;;;;;4994783;28;20184;-70
2023/12/09 00:29:37;;;;;;;1999.90;999.90;;;8.20;1.00;;;;;;4994458;28;20198;-70
2023/12/09 00:32:03;;;;;;;1999.90;999.90;;;8.40;1.00;;;;;;4994525;28;20185;-70
2023/12/09 00:34:29;;;;;;;1999.90;999.90;;;8.20;1.00;;;;;;4994640;28;20171;-70
2023/12/09 00:36:54;;;;;;;1999.90;999.90;;;8.20;1.00;;;;;;4994513;28;20464;-70
2023/12/09 00:39:20;;;;;;;1999.90;999.90;;;8.10;1.00;;;;;;4994265;28;20202;-69
2023/12/09 00:41:45;;;;;;;1999.90;999.90;;;8.10;1.00;;;;;;4994358;28;20180;-70
2023/12/09 00:44:11;;;;;;;1999.90;999.90;;;8.10;25.50;;;;;;4994396;28;20189;-69
2023/12/09 00:46:36;;;;;;;1999.90;999.90;;;8.10;56.30;;;;;;4994376;28;20174;-70
2023/12/09 00:49:02;;;;;;;1999.90;999.90;;;8.40;27.00;;;;;;4993162;28;20686;-70
2023/12/09 00:51:28;;;;;;;1999.90;999.90;;;8.00;96.90;;;;;;4993159;28;20182;-70
2023/12/09 00:53:53;;;;;;;1999.90;999.90;;;8.20;95.80;;;;;;4994487;28;20592;-72
2023/12/09 00:56:19;;;;;;;1999.90;999.90;;;8.00;67.10;;;;;;4994433;28;20237;-70
2023/12/09 00:58:44;;;;;;;1999.90;999.90;;;8.10;69.40;;;;;;4994075;28;20206;-70
2023/12/09 01:01:10;;;;;;;1999.90;999.90;;;8.20;50.50;;;;;;4994292;28;20169;-70
2023/12/09 01:03:35;;;;;;;1999.90;999.90;;;8.40;70.20;;;;;;4994109;28;20680;-70
2023/12/09 01:06:01;;;;;;;1999.90;999.90;;;8.30;40.50;;;;;;4994002;28;20174;-70
2023/12/09 01:08:28;;;;;;;1999.90;999.90;;;8.10;1.00;;;;;;4993842;28;20205;-69
2023/12/09 01:10:53;;;;;;;1999.90;999.90;;;8.20;26.30;;;;;;4994228;28;20950;-69
2023/12/09 01:13:19;;;;;;;1999.90;999.90;;;8.20;35.70;;;;;;4994111;28;20434;-69
2023/12/09 01:15:45;;;;;;;1999.90;999.90;;;8.10;32.50;;;;;;4994028;28;20641;-69
2023/12/09 01:18:10;;;;;;;1999.90;999.90;;;8.10;23.30;;;;;;4993815;28;20199;-70
2023/12/09 01:20:36;;;;;;;1999.90;999.90;;;8.00;90.90;;;;;;4992752;28;20177;-70
2023/12/09 01:23:01;;;;;;;1999.90;999.90;;;8.00;20.20;;;;;;4993879;28;20233;-69
2023/12/09 01:25:27;;;;;;;1999.90;999.90;;;7.80;11.10;;;;;;4993846;28;20242;-70
2023/12/09 01:27:52;;;;;;;1999.90;999.90;;;7.60;5.10;;;;;;4993656;28;20169;-69
2023/12/09 01:30:18;;;;;;;1999.90;999.90;;;7.70;1.00;;;;;;4993775;28;20170;-69
2023/12/09 01:32:44;;;;;;;1999.90;999.90;;;7.70;52.20;;;;;;4993662;28;20205;-70
2023/12/09 01:35:10;;;;;;;1999.90;999.90;;;7.60;37.90;;;;;;4993727;28;20197;-69
2023/12/09 01:37:35;;;;;;;1999.90;999.90;;;7.70;28.70;;;;;;4993484;28;20170;-69
2023/12/09 01:40:01;;;;;;;1999.90;999.90;;;7.70;75.80;;;;;;4993514;28;20432;-69
2023/12/09 01:42:27;;;;;;;1999.90;999.90;;;7.80;91.90;;;;;;4993503;28;20170;-70
2023/12/09 01:44:52;;;;;;;1999.90;999.90;;;7.70;91.70;;;;;;4993360;28;20615;-70
2023/12/09 01:47:18;;;;;;;1999.90;999.90;;;8.00;46.30;;;;;;4993588;28;20172;-70
2023/12/09 01:49:44;;;;;;;1999.90;999.90;;;7.70;99.90;;;;;;4993146;28;20247;-69
2023/12/09 01:52:10;;;;;;;1999.90;999.90;;;8.00;96.40;;;;;;4993334;28;20165;-70
2023/12/09 01:54:35;;;;;;;1999.90;999.90;;;7.40;87.90;;;;;;4993387;28;20166;-69
2023/12/09 01:57:01;;;;;;;1999.90;999.90;;;7.90;99.90;;;;;;4993523;28;20174;-70
2023/12/09 01:59:27;;;;;;;1999.90;999.90;;;7.90;99.90;;;;;;4992618;28;20273;-69
2023/12/09 02:01:53;;;;;;;1999.90;999.90;;;7.90;99.80;;;;;;4993109;28;20530;-70
2023/12/09 02:04:19;;;;;;;1999.90;999.90;;;8.20;99.90;;;;;;4993126;28;20197;-69
2023/12/09 02:06:45;;;;;;;1999.90;999.90;;;8.10;99.90;;;;;;4993065;28;20966;-69
2023/12/09 02:09:11;;;;;;;1999.90;999.90;;;8.00;99.90;;;;;;4992742;28;20440;-69
2023/12/09 02:12:04;;;;;;;1999.90;999.90;;;8.00;99.90;;;;;;4993268;28;20742;-69
2023/12/09 02:14:36;;;;;;;1999.90;999.90;;;8.00;99.90;;;;;;4991779;28;20464;-69
2023/12/09 02:17:23;;;;;;;1999.90;999.90;;;8.00;99.90;;;;;;4993023;28;20492;-71
2023/12/09 02:19:49;;;;;;;1999.90;999.90;;;8.20;99.90;;;;;;4992840;28;20519;-69
2023/12/09 02:22:15;;;;;;;1999.90;999.90;;;7.70;99.90;;;;;;4992776;28;20417;-70
2023/12/09 02:24:41;;;;;;;1999.90;999.90;;;8.00;99.90;;;;;;4992803;28;20461;-70
2023/12/09 02:27:13;;;;;;;1999.90;999.90;;;7.80;99.90;;;;;;4992790;28;20194;-70
2023/12/09 02:29:54;;;;;;;1999.90;999.90;;;7.80;99.90;;;;;;4992610;28;20265;-69
2023/12/09 02:32:23;;;;;;;1999.90;999.90;;;7.80;99.90;;;;;;4992724;28;20393;-69
2023/12/09 02:34:51;;;;;;;1999.90;999.90;;;7.70;99.90;;;;;;4992634;28;20778;-69
2023/12/09 02:37:19;;;;;;;1999.90;999.90;;;7.50;99.90;;;;;;4992727;28;20456;-69
2023/12/09 02:39:45;;;;;;;1999.90;999.90;;;7.50;99.90;;;;;;4992295;28;20424;-69
2023/12/09 02:42:12;;;;;;;1999.90;999.90;;;7.30;99.90;;;;;;4991215;28;20448;-69
2023/12/09 02:44:41;;;;;;;1999.90;999.90;;;7.20;95.70;;;;;;4992519;28;20487;-69
2023/12/09 02:47:10;;;;;;;1999.90;999.90;;;7.00;99.90;;;;;;4991308;28;20406;-69
2023/12/09 02:49:36;;;;;;;1999.90;999.90;;;6.90;73.60;;;;;;4992224;28;20432;-70
2023/12/09 02:52:02;;;;;;;1999.90;999.90;;;7.20;99.90;;;;;;4992432;28;20784;-70
2023/12/09 02:54:27;;;;;;;1999.90;999.90;;;6.80;99.90;;;;;;4992542;28;20209;-70
2023/12/09 02:56:53;;;;;;;1999.90;999.90;;;6.80;99.90;;;;;;4992470;28;20177;-70
2023/12/09 02:59:18;;;;;;;1999.90;999.90;;;6.70;99.90;;;;;;4992201;28;20340;-70
2023/12/09 03:01:44;;;;;;;1999.90;999.90;;;6.70;99.90;;;;;;4992476;28;20178;-70
2023/12/09 03:04:10;;;;;;;1999.90;999.90;;;6.60;99.70;;;;;;4992342;28;20193;-70
2023/12/09 03:06:36;;;;;;;1999.90;999.90;;;6.60;99.90;;;;;;4992418;28;20201;-69
2023/12/09 03:09:03;;;;;;;1999.90;999.90;;;6.80;99.90;;;;;;4992062;28;20448;-69
2023/12/09 03:11:28;;;;;;;1999.90;999.90;;;6.60;99.90;;;;;;4992337;28;20172;-70
2023/12/09 03:13:54;;;;;;;1999.90;999.90;;;6.50;95.30;;;;;;4996312;28;20499;-70
2023/12/09 03:16:19;;;;;;;1999.90;999.90;;;6.50;99.90;;;;;;4996368;28;20177;-70
2023/12/09 03:18:45;;;;;;;1999.90;999.90;;;6.40;90.60;;;;;;4995927;28;20720;-70
2023/12/09 03:21:17;;;;;;;1999.90;999.90;;;6.40;99.90;;;;;;4996240;28;20185;-69
2023/12/09 03:23:43;;;;;;;1999.90;999.90;;;6.30;43.70;;;;;;4994816;28;20293;-70
2023/12/09 03:26:16;;;;;;;1999.90;999.90;;;6.40;64.60;;;;;;4996089;28;20401;-70
2023/12/09 03:28:42;;;;;;;1999.90;999.90;;;6.50;49.70;;;;;;4995848;28;20797;-71
2023/12/09 03:31:12;;;;;;;1999.90;999.90;;;6.10;99.90;;;;;;4995965;28;20443;-70
2023/12/09 03:33:37;;;;;;;1999.90;999.90;;;6.10;99.80;;;;;;4995969;28;20504;-70
2023/12/09 03:36:04;;;;;;;1999.90;999.90;;;6.50;99.90;;;;;;4995969;28;20967;-70
2023/12/09 03:38:29;;;;;;;1999.90;999.90;;;6.30;99.90;;;;;;4995583;28;20468;-69
2023/12/09 03:40:55;;;;;;;1999.90;999.90;;;;;;;;;;4995800;28;20452;-69
2023/12/09 03:43:21;;;;;;;1999.90;999.90;;;6.30;99.90;;;;;;4995736;28;20169;-69
2023/12/09 03:45:46;;;;;;;1999.90;999.90;;;6.20;99.90;;;;;;4995800;28;20536;-69
2023/12/09 03:48:12;;;;;;;1999.90;999.90;;;6.20;99.90;;;;;;4995473;28;20268;-70
2023/12/09 03:50:38;;;;;;;1999.90;999.90;;;6.10;99.90;;;;;;4995669;28;20920;-70
2023/12/09 03:53:04;;;;;;;1999.90;999.90;;;6.00;99.90;;;;;;4995550;28;20743;-70
2023/12/09 03:55:29;;;;;;;1999.90;999.90;;;6.20;99.90;;;;;;4995557;28;20174;-71
2023/12/09 03:57:55;;;;;;;1999.90;999.90;;;6.20;99.90;;;;;;4995239;28;20420;-70
2023/12/09 04:00:22;;;;;;;1999.90;999.90;;;6.10;99.90;;;;;;4995430;28;20202;-70
2023/12/09 04:02:48;;;;;;;1999.90;999.90;;;6.10;99.90;;;;;;4995448;28;20496;-71
2023/12/09 04:05:14;;;;;;;1999.90;999.90;;;6.10;99.90;;;;;;4995327;28;20867;-70
2023/12/09 04:07:40;;;;;;;1999.90;999.90;;;6.00;99.90;;;;;;4995155;28;20401;-69
2023/12/09 04:10:06;;;;;;;1999.90;999.90;;;6.10;99.90;;;;;;4993901;28;20444;-69
2023/12/09 04:12:32;;;;;;;1999.90;999.90;;;6.00;99.90;;;;;;4995269;28;20544;-70
2023/12/09 04:14:58;;;;;;;1999.90;999.90;;;5.90;99.90;;;;;;4995172;28;20409;-70
2023/12/09 04:17:23;;;;;;;1999.90;999.90;;;6.20;99.90;;;;;;4995226;28;20227;-70
2023/12/09 04:19:51;;;;;;;1999.90;999.90;;;5.40;99.90;;;;;;4995140;28;20688;-70
2023/12/09 04:22:17;;;;;;;1999.90;999.90;;;5.50;99.90;;;;;;4993784;28;20182;-70
2023/12/09 04:24:42;;;;;;;1999.90;999.90;;;5.70;99.90;;;;;;4994689;28;20535;-70
2023/12/09 04:27:08;;;;;;;1999.90;999.90;;;5.50;99.90;;;;;;4994980;28;20170;-70
2023/12/09 04:29:34;;;;;;;1999.90;999.90;;;5.60;99.90;;;;;;4994631;28;20273;-70
2023/12/09 04:31:59;;;;;;;1999.90;999.90;;;5.50;99.90;;;;;;4994909;28;20807;-69
2023/12/09 04:34:25;;;;;;;1999.90;999.90;;;5.40;99.90;;;;;;4994969;28;20177;-69
2023/12/09 04:36:51;;;;;;;1999.90;999.90;;;5.40;99.90;;;;;;4994826;28;20178;-69
2023/12/09 04:39:16;;;;;;;1999.90;999.90;;;5.40;99.90;;;;;;4994480;28;20268;-69
2023/12/09 04:41:42;;;;;;;1999.90;999.90;;;5.40;99.90;;;;;;4994704;28;20634;-69
2023/12/09 04:44:08;;;;;;;1999.90;999.90;;;5.50;99.90;;;;;;4994527;28;20471;-70
2023/12/09 04:46:34;;;;;;;1999.90;999.90;;;5.40;99.90;;;;;;4994725;28;20170;-70
2023/12/09 04:48:59;;;;;;;1999.90;999.90;;;5.50;99.90;;;;;;4994324;28;20432;-70
2023/12/09 04:51:25;;;;;;;1999.90;999.90;;;5.50;99.90;;;;;;4994561;28;20194;-70
2023/12/09 04:53:51;;;;;;;1999.90;999.90;;;5.70;99.90;;;;;;4994543;28;20231;-70
2023/12/09 04:56:17;;;;;;;1999.90;999.90;;;5.60;99.90;;;;;;4994533;28;20478;-70
2023/12/09 04:58:43;;;;;;;1999.90;999.90;;;5.60;99.90;;;;;;4994137;28;20208;-70
2023/12/09 05:01:08;;;;;;;1999.90;999.90;;;5.50;99.90;;;;;;4994368;28;20409;-71
2023/12/09 05:03:34;;;;;;;1999.90;999.90;;;5.60;99.90;;;;;;4994226;28;20541;-70
2023/12/09 05:06:00;;;;;;;1999.90;999.90;;;5.50;99.90;;;;;;4994308;28;20220;-70
2023/12/09 05:08:27;;;;;;;1999.90;999.90;;;5.40;99.90;;;;;;5008749;23;20256;-72
2023/12/09 05:10:52;;;;;;;1999.90;999.90;;;5.50;99.90;;;;;;4990064;28;21175;-71
2023/12/09 05:13:18;;;;;;;1999.90;999.90;;;5.50;99.90;;;;;;4993851;28;20409;-71
2023/12/09 05:15:44;;;;;;;1999.90;999.90;;;5.60;99.90;;;;;;4993967;28;20170;-71
2023/12/09 05:18:09;;;;;;;1999.90;999.90;;;5.60;99.90;;;;;;4993598;28;20551;-71
2023/12/09 05:20:35;;;;;;;1999.90;999.90;;;5.70;99.90;;;;;;4993788;28;20201;-71
2023/12/09 05:23:00;;;;;;;1999.90;999.90;;;5.60;99.90;;;;;;4993697;28;20170;-71
2023/12/09 05:25:26;;;;;;;1999.90;999.90;;;5.60;99.90;;;;;;4993788;28;20202;-72
2023/12/09 05:27:52;;;;;;;1999.90;999.90;;;5.60;99.90;;;;;;4993518;28;20166;-72
2023/12/09 05:30:17;;;;;;;1999.90;999.90;;;5.50;99.90;;;;;;4993456;28;20189;-71
2023/12/09 05:32:43;;;;;;;1999.90;999.90;;;5.50;99.90;;;;;;4993591;28;20174;-72
2023/12/09 05:35:10;;;;;;;1999.90;999.90;;;5.60;99.90;;;;;;4992884;28;20178;-72
2023/12/09 05:37:36;;;;;;;1999.90;999.90;;;5.50;99.90;;;;;;4993402;28;20182;-71
2023/12/09 05:40:03;;;;;;;1999.90;999.90;;;5.50;99.90;;;;;;4993354;28;20432;-71
2023/12/09 05:42:29;;;;;;;1999.90;999.90;;;5.40;99.90;;;;;;4993254;28;20412;-71
2023/12/09 05:44:54;;;;;;;1999.90;999.90;;;5.40;99.90;;;;;;4993315;28;20453;-72
2023/12/09 05:47:20;;;;;;;1999.90;999.90;;;5.40;99.90;;;;;;4993172;28;20177;-72
2023/12/09 05:49:45;;;;;;;1999.90;999.90;;;5.40;99.90;;;;;;4993061;28;20202;-72
2023/12/09 05:52:11;;;;;;;1999.90;999.90;;;5.40;99.90;;;;;;4993119;28;20291;-72
2023/12/09 05:54:37;;;;;;;1999.90;999.90;;;5.30;99.90;;;;;;4993285;28;20188;-71
2023/12/09 05:57:03;;;;;;;1999.90;999.90;;;5.30;99.90;;;;;;4993017;28;20197;-71
2023/12/09 05:59:29;;;;;;;1999.90;999.90;;;5.20;99.90;;;;;;4992850;28;20476;-71
2023/12/09 06:01:55;;;;;;;1999.90;999.90;;;5.30;99.90;;;;;;4993025;28;20178;-71
2023/12/09 06:04:20;;;;;;;1999.90;999.90;;;5.30;99.90;;;;;;4993030;28;20193;-71
2023/12/09 06:06:46;;;;;;;1999.90;999.90;;;5.20;99.90;;;;;;4992939;28;20925;-71
2023/12/09 06:09:11;;;;;;;1999.90;999.90;;;5.10;99.90;;;;;;4992407;28;20297;-72
2023/12/09 06:11:37;;;;;;;1999.90;999.90;;;5.10;99.90;;;;;;4992812;28;20173;-72
2023/12/09 06:14:03;;;;;;;1999.90;999.90;;;5.10;99.90;;;;;;4992692;28;20177;-71
2023/12/09 06:16:28;;;;;;;1999.90;999.90;;;5.10;99.90;;;;;;4992792;28;20174;-71
2023/12/09 06:18:54;;;;;;;1999.90;999.90;;;5.10;99.90;;;;;;4992466;28;20440;-71
2023/12/09 06:21:21;;;;;;;1999.90;999.90;;;5.10;99.90;;;;;;4992594;28;20177;-71
2023/12/09 06:23:47;;;;;;;1999.90;999.90;;;5.00;99.90;;;;;;4992634;28;20221;-72
2023/12/09 06:26:13;;;;;;;1999.90;999.90;;;5.00;99.90;;;;;;4992572;28;20842;-72
2023/12/09 06:28:38;;;;;;;1999.90;999.90;;;5.00;99.90;;;;;;4992631;28;20533;-72
2023/12/09 06:31:04;;;;;;;1999.90;999.90;;;4.90;99.90;;;;;;4992529;28;20170;-71
2023/12/09 06:33:30;;;;;;;1999.90;999.90;;;4.90;99.90;;;;;;4992453;28;20181;-72
2023/12/09 06:35:56;;;;;;;1999.90;999.90;;;5.00;99.90;;;;;;4992553;28;20417;-72
2023/12/09 06:38:22;;;;;;;1999.90;999.90;;;4.90;99.90;;;;;;4992125;28;20237;-71
2023/12/09 06:40:47;;;;;;;1999.90;999.90;;;5.00;99.90;;;;;;4992511;28;20460;-72
2023/12/09 06:43:13;;;;;;;1999.90;999.90;;;5.00;99.90;;;;;;4992247;28;20409;-72
2023/12/09 06:45:39;;;;;;;1999.90;999.90;;;4.90;99.90;;;;;;4992370;28;20300;-72
2023/12/09 06:48:04;;;;;;;1999.90;999.90;;;4.90;99.90;;;;;;4992126;28;20177;-71
2023/12/09 06:50:30;;;;;;;1999.90;999.90;;;4.90;99.90;;;;;;4992338;28;20196;-71
2023/12/09 06:52:55;;;;;;;1999.90;999.90;;;4.90;99.90;;;;;;4992308;28;20212;-71
2023/12/09 06:55:21;;;;;;;1999.90;999.90;;;4.90;99.90;;;;;;4992130;28;20195;-72
2023/12/09 06:57:47;;;;;;;1999.90;999.90;;;4.90;99.90;;;;;;4992115;28;20173;-73
2023/12/09 07:00:13;;;;;;;1999.90;999.90;;;4.90;99.90;;;;;;4992208;28;20205;-72
2023/12/09 07:02:39;;;;;;;1999.90;999.90;;;4.90;99.90;;;;;;4989682;28;20252;-71
2023/12/09 07:05:06;;;;;;;1999.90;999.90;;;4.90;99.90;;;;;;4992149;28;20456;-71
2023/12/09 07:07:32;;;;;;;1999.90;999.90;;;4.90;99.90;;;;;;4991977;28;20405;-72
2023/12/09 07:09:58;;;;;;;1999.90;999.90;;;4.90;99.90;;;;;;4991914;28;20866;-71
2023/12/09 07:12:23;;;;;;;1999.90;999.90;;;4.80;99.90;;;;;;4991951;28;20413;-71
2023/12/09 07:14:49;;;;;;;1999.90;999.90;;;4.80;99.90;;;;;;4992015;28;20184;-71
2023/12/09 07:17:15;;;;;;;1999.90;999.90;;;4.90;99.90;;;;;;4992042;28;20177;-70
2023/12/09 07:19:40;;;;;;;1999.90;999.90;;;4.90;99.90;;;;;;4991881;28;20676;-71
2023/12/09 07:22:06;;;;;;;1999.90;999.90;;;4.90;99.90;;;;;;4991924;28;20178;-71
2023/12/09 07:24:31;;;;;;;1999.90;999.90;;;5.00;99.90;;;;;;4991922;28;20197;-72
2023/12/09 07:26:57;;;;;;;1999.90;999.90;;;5.10;99.90;;;;;;4992104;28;20370;-72
2023/12/09 07:29:22;;;;;;;1999.90;999.90;;;5.30;99.90;;;;;;4991677;28;20532;-71
2023/12/09 07:31:48;;;;;;;1999.90;999.90;;;5.40;99.90;;;;;;4992081;28;20201;-71
2023/12/09 07:34:16;;;;;;;1999.90;999.90;;;5.50;99.90;;;;;;4992123;28;20256;-71
2023/12/09 07:36:45;;;;;;;1999.90;999.90;;;5.70;99.90;;;;;;4992063;28;20218;-71
2023/12/09 07:39:10;;;;;;;1999.90;999.90;;;6.40;99.90;;;;;;4991853;28;20547;-71
2023/12/09 07:41:36;;;;;;;1999.90;999.90;;;5.90;99.90;;;;;;4992053;28;20492;-71
2023/12/09 07:44:02;;;;;;;1999.90;999.90;;;6.00;99.90;;;;;;4992106;28;20198;-71
2023/12/09 07:46:27;;;;;;;1999.90;999.90;;;6.00;99.90;;;;;;4992011;28;20420;-71
2023/12/09 07:48:53;;;;;;;1999.90;999.90;;;6.00;99.90;;;;;;4991735;28;20264;-71
2023/12/09 07:51:19;;;;;;;1999.90;999.90;;;6.00;99.90;;;;;;4991930;28;20162;-71
2023/12/09 07:53:44;;;;;;;1999.90;999.90;;;6.00;99.90;;;;;;4991949;28;20205;-71
2023/12/09 07:56:10;;;;;;;1999.90;999.90;;;6.00;99.90;;;;;;4991889;28;20185;-72
2023/12/09 07:58:36;;;;;;;1999.90;999.90;;;5.90;99.90;;;;;;4993499;28;20280;-72
2023/12/09 08:01:01;;;;;;;1999.90;999.90;;;5.90;99.90;;;;;;4995710;28;20491;-71
2023/12/09 08:03:30;;;;;;;1999.90;999.90;;;6.00;99.90;;;;;;4991453;28;20273;-70
2023/12/09 08:05:56;;;;;;;1999.90;999.90;;;6.10;99.90;;;;;;4995261;28;20181;-72
2023/12/09 08:08:21;;;;;;;1999.90;999.90;;;6.00;99.90;;;;;;4994811;28;20419;-71
2023/12/09 08:10:47;;;;;;;1999.90;999.90;;;6.20;99.90;;;;;;4995308;28;20174;-71
2023/12/09 08:13:13;;;;;;;1999.90;999.90;;;6.30;99.90;;;;;;4995108;28;20170;-71
2023/12/09 08:15:38;;;;;;;1999.90;999.90;;;6.40;99.90;;;;;;4995307;28;20587;-71
2023/12/09 08:18:04;;;;;;;1999.90;999.90;;;6.40;99.90;;;;;;4995397;28;20166;-71
2023/12/09 08:20:29;;;;;;;1999.90;999.90;;;6.50;99.90;;;;;;4995345;28;20186;-71
2023/12/09 08:22:55;;;;;;;1999.90;999.90;;;6.60;99.90;;;;;;4995126;28;20169;-71
2023/12/09 08:25:21;;;;;;;1999.90;999.90;;;6.60;99.90;;;;;;4995424;28;20201;-71
2023/12/09 08:27:46;;;;;;;1999.90;999.90;;;6.70;99.90;;;;;;4995133;28;20252;-70
2023/12/09 08:30:12;;;;;;;1999.90;999.90;;;6.80;99.90;;;;;;4995130;28;20185;-72
2023/12/09 08:32:42;;;;;;;1999.90;999.90;;;6.80;99.90;;;;;;4994925;28;20205;-71
2023/12/09 08:35:09;;;;;;;1999.90;999.90;;;7.00;99.90;;;;;;4994942;28;20177;-71
2023/12/09 08:37:36;;;;;;;1999.90;999.90;;;6.90;99.90;;;;;;4994705;28;20409;-72
2023/12/09 08:40:09;;;;;;;1999.90;999.90;;;7.00;99.90;;;;;;4994774;28;20435;-72
2023/12/09 08:42:45;;;;;;;1999.90;999.90;;;7.10;99.90;;;;;;4994616;28;20409;-72
2023/12/09 08:45:13;;;;;;;1999.90;999.90;;;7.10;99.90;;;;;;4994679;28;20527;-71
2023/12/09 08:47:39;;;;;;;1999.90;999.90;;;7.20;99.90;;;;;;4994442;28;20401;-72
2023/12/09 08:50:06;;;;;;;1999.90;999.90;;;7.30;99.90;;;;;;4994464;28;20971;-72
2023/12/09 08:52:32;;;;;;;1999.90;999.90;;;7.30;99.90;;;;;;4994406;28;20468;-72
2023/12/09 08:54:58;;;;;;;1999.90;999.90;;;7.40;99.90;;;;;;4994537;28;20463;-72
2023/12/09 08:57:25;;;;;;;1999.90;999.90;;;7.50;99.90;;;;;;4994441;28;20413;-72
2023/12/09 08:59:51;;;;;;;1999.90;999.90;;;7.50;99.90;;;;;;4994166;28;20433;-71
2023/12/09 09:02:17;;;;;;;1999.90;999.90;;;7.50;99.90;;;;;;4994232;28;20437;-72
2023/12/09 09:04:42;;;;;;;1999.90;999.90;;;7.60;99.90;;;;;;4994242;28;20487;-72
2023/12/09 09:07:11;;;;;;;1999.90;999.90;;;7.60;99.90;;;;;;4994510;28;20641;-71
2023/12/09 09:09:40;;;;;;;1999.90;999.90;;;7.70;99.90;;;;;;4992812;28;20209;-72
2023/12/09 09:12:07;;;;;;;1999.90;999.90;;;7.80;99.90;;;;;;4992800;28;20401;-71
2023/12/09 09:14:34;;;;;;;1999.90;999.90;;;7.80;99.90;;;;;;4992785;28;20759;-72
2023/12/09 09:17:00;;;;;;;1999.90;999.90;;;8.10;99.90;;;;;;4993777;28;20911;-71
2023/12/09 09:19:25;;;;;;;1999.90;999.90;;;7.90;99.90;;;;;;4993440;28;20511;-72
2023/12/09 09:21:52;;;;;;;1999.90;999.90;;;7.80;99.90;;;;;;4993693;28;20664;-72
2023/12/09 09:24:18;;;;;;;1999.90;999.90;;;7.90;99.90;;;;;;4993623;28;20614;-72
2023/12/09 09:26:44;;;;;;;1999.90;999.90;;;8.00;99.90;;;;;;4993567;28;20493;-73
2023/12/09 09:29:10;;;;;;;1999.90;999.90;;;8.00;99.90;;;;;;4993193;28;20436;-72
2023/12/09 09:31:36;;;;;;;1999.90;999.90;;;8.10;99.90;;;;;;4993400;28;20237;-72
2023/12/09 09:34:01;;;;;;;1999.90;999.90;;;8.10;99.90;;;;;;4993341;28;20816;-72
2023/12/09 09:36:27;;;;;;;1999.90;999.90;;;8.20;99.90;;;;;;4993238;28;20413;-71
2023/12/09 09:38:53;;;;;;;1999.90;999.90;;;8.30;99.90;;;;;;4993090;28;20196;-71
2023/12/09 09:41:45;;;;;;;1999.90;999.90;;;8.40;99.90;;;;;;4986002;28;20537;-72
2023/12/09 09:44:14;;;;;;;1999.90;999.90;;;8.70;99.90;;;;;;4993047;28;20202;-72
2023/12/09 09:46:41;;;;;;;1999.90;999.90;;;8.60;99.90;;;;;;4985716;28;20413;-72
2023/12/09 09:49:10;;;;;;;1999.90;999.90;;;8.70;99.90;;;;;;4988598;28;20427;-72
2023/12/09 09:51:37;;;;;;;1999.90;999.90;;;8.80;99.90;;;;;;4989394;28;20513;-72
2023/12/09 09:54:22;;;;;;;1999.90;999.90;;;8.80;99.90;;;;;;4989069;28;21058;-71
2023/12/09 09:56:50;;;;;;;1999.90;999.90;;;9.00;99.90;;;;;;4989351;28;20452;-71
2023/12/09 09:59:20;;;;;;;1999.90;999.90;;;9.10;99.90;;;;;;4988568;28;20447;-72
2023/12/09 10:01:46;;;;;;;1999.90;999.90;;;9.30;99.90;;;;;;4988200;28;20413;-71
2023/12/09 10:04:12;;;;;;;1999.90;999.90;;;9.50;99.90;;;;;;4988827;28;20815;-72
2023/12/09 10:06:40;;;;;;;1999.90;999.90;;;9.50;99.90;;;;;;4988592;28;20421;-71
2023/12/09 10:09:05;;;;;;;1999.90;999.90;;;9.60;99.90;;;;;;4986114;28;20507;-71
2023/12/09 10:11:31;;;;;;;1999.90;999.90;;;9.60;99.90;;;;;;4989036;28;20422;-72
2023/12/09 10:13:57;;;;;;;1999.90;999.90;;;9.60;99.90;;;;;;4988598;28;20183;-72
2023/12/09 10:16:23;;;;;;;1999.90;999.90;;;9.70;99.90;;;;;;4979550;28;20592;-72
2023/12/09 10:18:48;;;;;;;1999.90;999.90;;;9.70;99.90;;;;;;4969067;28;20241;-72
2023/12/09 10:21:15;;;;;;;1999.90;999.90;;;9.70;99.90;;;;;;4968713;28;20427;-72
2023/12/09 10:23:43;;;;;;;1999.90;999.90;;;9.80;99.90;;;;;;4968638;28;20180;-72
2023/12/09 10:26:09;;;;;;;1999.90;999.90;;;9.90;99.90;;;;;;4969304;28;20418;-72
2023/12/09 10:28:35;;;;;;;1999.90;999.90;;;9.90;99.90;;;;;;4968930;28;21194;-72
2023/12/09 10:31:02;;;;;;;1999.90;999.90;;;10.10;99.90;;;;;;4968649;28;20460;-72
2023/12/09 10:33:34;;;;;;;1999.90;999.90;;;10.10;99.90;;;;;;4969090;28;20494;-73
2023/12/09 10:36:00;;;;;;;1999.90;999.90;;;10.10;99.90;;;;;;4969336;28;20409;-72
2023/12/09 10:38:26;;;;;;;1999.90;999.90;;;10.30;99.90;;;;;;4968290;28;20424;-71
2023/12/09 10:40:55;;;;;;;1999.90;999.90;;;10.00;99.90;;;;;;4968576;28;21236;-72
2023/12/09 10:43:21;;;;;;;1999.90;999.90;;;10.20;99.90;;;;;;4980754;28;20423;-71
2023/12/09 10:45:47;;;;;;;1999.90;999.90;;;10.10;99.90;;;;;;4987965;28;20441;-71
2023/12/09 10:48:14;;;;;;;1999.90;999.90;;;10.20;99.90;;;;;;4987667;28;20907;-73
2023/12/09 10:50:39;;;;;;;1999.90;999.90;;;9.90;99.90;;;;;;4988558;28;20459;-72
2023/12/09 10:53:06;;;;;;;1999.90;999.90;;;10.00;99.90;;;;;;4988072;28;20453;-72
2023/12/09 10:55:32;;;;;;;1999.90;999.90;;;9.80;99.90;;;;;;4988043;28;20183;-73
2023/12/09 10:57:59;;;;;;;1999.90;999.90;;;9.70;99.90;;;;;;4988388;28;20795;-72
2023/12/09 11:00:25;;;;;;;1999.90;999.90;;;9.80;99.90;;;;;;4987576;28;20212;-71
2023/12/09 11:02:55;;;;;;;1999.90;999.90;;;9.50;99.90;;;;;;4987834;28;21110;-72
2023/12/09 11:05:21;;;;;;;1999.90;999.90;;;9.40;99.90;;;;;;4988326;28;20952;-72
2023/12/09 11:07:47;;;;;;;1999.90;999.90;;;9.40;99.90;;;;;;4987912;28;20438;-71
2023/12/09 11:10:14;;;;;;;1999.90;999.90;;;9.40;99.90;;;;;;4987853;28;21119;-71
2023/12/09 11:12:44;;;;;;;1999.90;999.90;;;9.30;99.90;;;;;;4988324;28;20488;-72
2023/12/09 11:15:13;;;;;;;1999.90;999.90;;;9.60;99.90;;;;;;4988429;28;20417;-72
2023/12/09 11:17:47;;;;;;;1999.90;999.90;;;9.30;99.90;;;;;;4987564;28;20489;-72
2023/12/09 11:20:18;;;;;;;1999.90;999.90;;;9.40;99.90;;;;;;4987456;28;20441;-71
2023/12/09 11:22:46;;;;;;;1999.90;999.90;;;9.40;99.90;;;;;;4987587;28;20413;-72
2023/12/09 11:25:25;;;;;;;1999.90;999.90;;;9.40;99.90;;;;;;4988148;28;20996;-72
2023/12/09 11:27:52;;;;;;;1999.90;999.90;;;9.40;99.90;;;;;;4987395;28;20540;-72
2023/12/09 11:30:46;;;;;;;1999.90;999.90;;;9.20;99.90;;;;;;4987769;28;20439;-72
2023/12/09 11:33:12;;;;;;;1999.90;999.90;;;9.20;99.90;;;;;;4987929;28;20402;-72
2023/12/09 11:35:38;;;;;;;1999.90;999.90;;;9.40;99.90;;;;;;4990839;28;20431;-71
2023/12/09 11:38:07;;;;;;;1999.90;999.90;;;9.40;99.90;;;;;;4991128;28;20433;-69
2023/12/09 11:40:33;;;;;;;1999.90;999.90;;;9.50;99.90;;;;;;4991032;28;20527;-70
2023/12/09 11:43:00;;;;;;;1999.90;999.90;;;9.40;99.90;;;;;;4991402;28;20921;-70
2023/12/09 11:45:29;;;;;;;1999.90;999.90;;;9.50;99.90;;;;;;4990735;28;20553;-69
2023/12/09 11:47:57;;;;;;;1999.90;999.90;;;9.50;99.90;;;;;;4990211;28;20501;-70
2023/12/09 11:50:22;;;;;;;1999.90;999.90;;;9.50;99.90;;;;;;4991841;28;20438;-71
2023/12/09 11:52:48;;;;;;;1999.90;999.90;;;9.50;99.90;;;;;;5018996;23;20546;-72
2023/12/09 11:55:17;;;;;;;1999.90;999.90;;;9.60;99.90;;;;;;5015214;28;20177;-74
2023/12/09 11:57:43;;;;;;;1999.90;999.90;;;9.50;99.90;;;;;;5013772;28;20417;-73
2023/12/09 12:00:13;;;;;;;1999.90;999.90;;;9.50;99.90;;;;;;5015289;28;20432;-73
2023/12/09 12:02:40;;;;;;;1999.90;999.90;;;9.40;99.90;;;;;;5005477;28;20429;-73
2023/12/09 12:05:08;;;;;;;1999.90;999.90;;;9.40;99.90;;;;;;4995444;28;20905;-73